Brooklyn, Iowa
Current Conditions -  °F | °C
As of 6:35 AM on Saturday 25 Oct 2014 (Local Time) from KGGI Reporting Station
Clear Clear  
Wind Chill: 44°   Ceiling: Unl
Heat Index: 47°   Visibility: 10mi
Dew Point: 47°   Wind: 7mph
Humidity: 97%   Direction: 310°NW
Pressure: 30.01"   Gusts: NA
Location:  41.73°N, 92.45°W
Report Text: KGGI 251135Z AUTO 31006KT 10SM CLR 09/08 A3001 RMK AO2 T00860082
Loading
Personal Weather Stations






























Interactive Weather Map
Tropical Storm Tracking
New forecast layout! Learn more

10-Day Weather Forecast

Advertisements
Track Severe Weather on mobile